Time;durP1;ratioP1;P1;durP2;ratioP2;P2;SDS_P1;SDS_P2;PMS_P1;PMS_P2;Temp;Humidity;BMP_temperature;BMP_pressure;BME280_temperature;BME280_humidity;BME280_pressure;Samples;Min_cycle;Max_cycle;Signal;HPM_P1;HPM_P2
2022/11/27 00:01:53;;;;;;;;;;;;;;;;;;4914722;29;19934;-89
2022/11/27 00:04:19;;;;;;;;;;;;;;;;;;4914944;29;19923;-89
2022/11/27 00:06:45;;;;;;;;;;;;;;;;;;4914957;29;20363;-89
2022/11/27 00:09:11;;;;;;;;;;;;;;;;;;4914820;29;19974;-89
2022/11/27 00:11:40;;;;;;;;;;;;;;;;;;4914984;29;20359;-89
2022/11/27 00:14:06;;;;;;;;;;;;;;;;;;4914947;29;19923;-89
2022/11/27 00:16:32;;;;;;;;;;;;;;;;;;4914840;29;19998;-89
2022/11/27 00:18:57;;;;;;;;;;;;;;;;;;4915177;29;19970;-89
2022/11/27 00:21:23;;;;;;;;;;;;;;;;;;4914566;29;20426;-89
2022/11/27 00:23:49;;;;;;;;;;;;;;;;;;4915137;29;19982;-89
2022/11/27 00:26:15;;;;;;;;;;;;;;;;;;4915019;29;20375;-89
2022/11/27 00:28:41;;;;;;;;;;;;;;;;;;4915445;29;20128;-89
2022/11/27 00:31:07;;;;;;;;;;;;;;;;;;4915054;29;20411;-89
2022/11/27 00:33:33;;;;;;;;;;;;;;;;;;4914707;29;20264;-89
2022/11/27 00:35:59;;;;;;;;;;;;;;;;;;4914853;29;20454;-89
2022/11/27 00:38:25;;;;;;;;;;;;;;;;;;4914687;29;19931;-89
2022/11/27 00:40:51;;;;;;;;;;;;;;;;;;4914467;29;19981;-89
2022/11/27 00:43:17;;;;;;;;;;;;;;;;;;4914287;29;20011;-89
2022/11/27 00:45:43;;;;;;;;;;;;;;;;;;4917042;29;19923;-88
2022/11/27 00:48:08;;;;;;;;;;;;;;;;;;4918796;29;19923;-88
2022/11/27 00:50:34;;;;;;;;;;;;;;;;;;4918623;29;19923;-89
2022/11/27 00:53:00;;;;;;;;;;;;;;;;;;4918523;29;20328;-89
2022/11/27 00:55:26;;;;;;;;;;;;;;;;;;4918483;29;19953;-89
2022/11/27 00:57:52;;;;;;;;;;;;;;;;;;4918071;29;19971;-89
2022/11/27 01:00:18;;;;;;;;;;;;;;;;;;4917995;29;19949;-89
2022/11/27 01:02:44;;;;;;;;;;;;;;;;;;4917968;29;19923;-89
2022/11/27 01:05:10;;;;;;;;;;;;;;;;;;4918430;29;20434;-89
2022/11/27 01:07:36;;;;;;;;;;;;;;;;;;4918413;29;19927;-89
2022/11/27 01:10:02;;;;;;;;;;;;;;;;;;4917933;29;19930;-89
2022/11/27 01:12:27;;;;;;;;;;;;;;;;;;4917626;29;19927;-88
2022/11/27 01:14:53;;;;;;;;;;;;;;;;;;4917879;29;20331;-89
2022/11/27 01:17:19;;;;;;;;;;;;;;;;;;4917752;29;20339;-88
2022/11/27 01:19:45;;;;;;;;;;;;;;;;;;4917557;29;19923;-89
2022/11/27 01:22:11;;;;;;;;;;;;;;;;;;4917712;29;20597;-88
2022/11/27 01:24:37;;;;;;;;;;;;;;;;;;4917783;29;19927;-88
2022/11/27 01:27:03;;;;;;;;;;;;;;;;;;4917524;29;19923;-89
2022/11/27 01:29:29;;;;;;;;;;;;;;;;;;4917578;29;19971;-89
2022/11/27 01:31:55;;;;;;;;;;;;;;;;;;4917684;29;19923;-89
2022/11/27 01:34:20;;;;;;;;;;;;;;;;;;4917715;29;20359;-88
2022/11/27 01:36:46;;;;;;;;;;;;;;;;;;4917472;29;19924;-88
2022/11/27 01:39:12;;;;;;;;;;;;;;;;;;4917494;29;19923;-89
2022/11/27 01:41:38;;;;;;;;;;;;;;;;;;4917398;29;19927;-89
2022/11/27 01:44:04;;;;;;;;;;;;;;;;;;4917184;29;19927;-89
2022/11/27 01:46:30;;;;;;;;;;;;;;;;;;4917659;29;19923;-89
2022/11/27 01:48:56;;;;;;;;;;;;;;;;;;4917530;29;20030;-89
2022/11/27 01:51:22;;;;;;;;;;;;;;;;;;4917417;29;19982;-88
2022/11/27 01:53:48;;;;;;;;;;;;;;;;;;4917663;29;20450;-89
2022/11/27 01:56:14;;;;;;;;;;;;;;;;;;4916735;29;20300;-89
2022/11/27 01:58:40;;;;;;;;;;;;;;;;;;4917362;29;19934;-89
2022/11/27 02:01:06;;;;;;;;;;;;;;;;;;4916991;29;20319;-89
2022/11/27 02:03:32;;;;;;;;;;;;;;;;;;4916899;29;19979;-89
2022/11/27 02:05:58;;;;;;;;;;;;;;;;;;4917204;29;19927;-88
2022/11/27 02:08:24;;;;;;;;;;;;;;;;;;4916794;29;20331;-88
2022/11/27 02:10:50;;;;;;;;;;;;;;;;;;4916913;29;19963;-89
2022/11/27 02:13:16;;;;;;;;;;;;;;;;;;4916610;29;19923;-89
2022/11/27 02:15:42;;;;;;;;;;;;;;;;;;4916899;29;19974;-89
2022/11/27 02:18:07;;;;;;;;;;;;;;;;;;4916571;29;19966;-89
2022/11/27 02:20:33;;;;;;;;;;;;;;;;;;4916488;29;20025;-88
2022/11/27 02:22:59;;;;;;;;;;;;;;;;;;4916567;29;20011;-88
2022/11/27 02:25:25;;;;;;;;;;;;;;;;;;4916502;29;20290;-89
2022/11/27 02:27:51;;;;;;;;;;;;;;;;;;4916558;29;19923;-88
2022/11/27 02:30:17;;;;;;;;;;;;;;;;;;4916371;29;20013;-88
2022/11/27 02:32:43;;;;;;;;;;;;;;;;;;4916582;29;20004;-89
2022/11/27 02:35:09;;;;;;;;;;;;;;;;;;4916224;29;19923;-88
2022/11/27 02:37:35;;;;;;;;;;;;;;;;;;4916223;29;19931;-88
2022/11/27 02:40:01;;;;;;;;;;;;;;;;;;4916324;29;20387;-88
2022/11/27 02:42:27;;;;;;;;;;;;;;;;;;4900221;29;19927;-89
2022/11/27 02:44:53;;;;;;;;;;;;;;;;;;4916043;29;19946;-89
2022/11/27 02:47:19;;;;;;;;;;;;;;;;;;4915921;29;19923;-88
2022/11/27 02:49:45;;;;;;;;;;;;;;;;;;4916046;29;19923;-89
2022/11/27 02:52:11;;;;;;;;;;;;;;;;;;4916112;29;19946;-88
2022/11/27 02:54:37;;;;;;;;;;;;;;;;;;4915879;29;19927;-89
2022/11/27 02:57:03;;;;;;;;;;;;;;;;;;4915912;29;19923;-88
2022/11/27 02:59:29;;;;;;;;;;;;;;;;;;4900294;29;19994;-88
2022/11/27 03:01:55;;;;;;;;;;;;;;;;;;4915757;29;20358;-88
2022/11/27 03:04:22;;;;;;;;;;;;;;;;;;4915134;29;21610;-89
2022/11/27 03:06:48;;;;;;;;;;;;;;;;;;4915348;29;19923;-89
2022/11/27 03:09:14;;;;;;;;;;;;;;;;;;4915379;29;19948;-89
2022/11/27 03:11:40;;;;;;;;;;;;;;;;;;4915406;29;20379;-89
2022/11/27 03:14:06;;;;;;;;;;;;;;;;;;4915528;29;19967;-89
2022/11/27 03:16:32;;;;;;;;;;;;;;;;;;4915449;29;19930;-90
2022/11/27 03:18:58;;;;;;;;;;;;;;;;;;4915602;29;20286;-90
2022/11/27 03:21:24;;;;;;;;;;;;;;;;;;4915515;29;20331;-90
2022/11/27 03:23:50;;;;;;;;;;;;;;;;;;4915855;29;20363;-90
2022/11/27 03:26:15;;;;;;;;;;;;;;;;;;4915734;29;19977;-89
2022/11/27 03:28:41;;;;;;;;;;;;;;;;;;4915374;29;19982;-89
2022/11/27 03:31:07;;;;;;;;;;;;;;;;;;4915222;29;19923;-89
2022/11/27 03:33:33;;;;;;;;;;;;;;;;;;4915354;29;19930;-90
2022/11/27 03:35:59;;;;;;;;;;;;;;;;;;4915300;29;19924;-89
2022/11/27 03:38:25;;;;;;;;;;;;;;;;;;4915313;29;19923;-90
2022/11/27 03:40:51;;;;;;;;;;;;;;;;;;4915170;29;19927;-89
2022/11/27 03:43:17;;;;;;;;;;;;;;;;;;4915112;29;19931;-90
2022/11/27 03:45:43;;;;;;;;;;;;;;;;;;4914989;29;19986;-89
2022/11/27 03:48:09;;;;;;;;;;;;;;;;;;4915091;29;19923;-89
2022/11/27 03:50:34;;;;;;;;;;;;;;;;;;4915387;29;19923;-89
2022/11/27 03:53:00;;;;;;;;;;;;;;;;;;4915327;29;20022;-89
2022/11/27 03:55:26;;;;;;;;;;;;;;;;;;4915136;29;19927;-89
2022/11/27 03:57:52;;;;;;;;;;;;;;;;;;4915006;29;20025;-89
2022/11/27 04:00:18;;;;;;;;;;;;;;;;;;4914899;29;20083;-90
2022/11/27 04:02:44;;;;;;;;;;;;;;;;;;4914947;29;20387;-89
2022/11/27 04:05:10;;;;;;;;;;;;;;;;;;4915565;29;20018;-88
2022/11/27 04:07:36;;;;;;;;;;;;;;;;;;4915138;29;20443;-88
2022/11/27 04:10:02;;;;;;;;;;;;;;;;;;4915034;29;19923;-88
2022/11/27 04:12:28;;;;;;;;;;;;;;;;;;4914869;29;19946;-88
2022/11/27 04:14:54;;;;;;;;;;;;;;;;;;4915134;29;19923;-89
2022/11/27 04:17:20;;;;;;;;;;;;;;;;;;4915012;29;20418;-88
2022/11/27 04:19:46;;;;;;;;;;;;;;;;;;4917467;29;20434;-88
2022/11/27 04:22:11;;;;;;;;;;;;;;;;;;4918556;29;20403;-88
2022/11/27 04:24:37;;;;;;;;;;;;;;;;;;4918671;29;19923;-88
2022/11/27 04:27:03;;;;;;;;;;;;;;;;;;4918619;29;19923;-89
2022/11/27 04:29:29;;;;;;;;;;;;;;;;;;4918465;29;19923;-87
2022/11/27 04:31:55;;;;;;;;;;;;;;;;;;4918362;29;19974;-88
2022/11/27 04:34:21;;;;;;;;;;;;;;;;;;4918787;29;20021;-89
2022/11/27 04:36:47;;;;;;;;;;;;;;;;;;4918498;29;19999;-89
2022/11/27 04:39:13;;;;;;;;;;;;;;;;;;4918406;29;20343;-89
2022/11/27 04:41:39;;;;;;;;;;;;;;;;;;4918385;29;20026;-88
2022/11/27 04:44:05;;;;;;;;;;;;;;;;;;4918196;29;19927;-89
2022/11/27 04:46:31;;;;;;;;;;;;;;;;;;4902474;29;19930;-89
2022/11/27 04:48:57;;;;;;;;;;;;;;;;;;4918264;29;19927;-89
2022/11/27 04:51:23;;;;;;;;;;;;;;;;;;4918231;29;20443;-88
2022/11/27 04:53:48;;;;;;;;;;;;;;;;;;4918133;29;19970;-89
2022/11/27 04:56:14;;;;;;;;;;;;;;;;;;4918078;29;19923;-89
2022/11/27 04:58:40;;;;;;;;;;;;;;;;;;4918103;29;19931;-89
2022/11/27 05:01:06;;;;;;;;;;;;;;;;;;4917917;29;19957;-88
2022/11/27 05:03:32;;;;;;;;;;;;;;;;;;4918170;29;20004;-89
2022/11/27 05:05:58;;;;;;;;;;;;;;;;;;4918040;29;20303;-89
2022/11/27 05:08:24;;;;;;;;;;;;;;;;;;4918064;29;19923;-89
2022/11/27 05:10:50;;;;;;;;;;;;;;;;;;4917720;29;20018;-89
2022/11/27 05:13:16;;;;;;;;;;;;;;;;;;4917858;29;19923;-88
2022/11/27 05:15:42;;;;;;;;;;;;;;;;;;4917783;29;19924;-89
2022/11/27 05:18:07;;;;;;;;;;;;;;;;;;4917771;29;20409;-88
2022/11/27 05:20:33;;;;;;;;;;;;;;;;;;4917522;29;19934;-89
2022/11/27 05:22:59;;;;;;;;;;;;;;;;;;4918033;29;19923;-88
2022/11/27 05:25:25;;;;;;;;;;;;;;;;;;4917999;29;19923;-89
2022/11/27 05:27:51;;;;;;;;;;;;;;;;;;4917362;29;19979;-88
2022/11/27 05:30:17;;;;;;;;;;;;;;;;;;4916770;29;19975;-88
2022/11/27 05:32:43;;;;;;;;;;;;;;;;;;4917720;29;19923;-88
2022/11/27 05:35:09;;;;;;;;;;;;;;;;;;4917395;29;19923;-88
2022/11/27 05:37:35;;;;;;;;;;;;;;;;;;4917593;29;19955;-89
2022/11/27 05:40:01;;;;;;;;;;;;;;;;;;4917529;29;20403;-89
2022/11/27 05:42:26;;;;;;;;;;;;;;;;;;4917138;29;20022;-89
2022/11/27 05:44:52;;;;;;;;;;;;;;;;;;4917492;29;20002;-89
2022/11/27 05:47:18;;;;;;;;;;;;;;;;;;4917464;29;20026;-89
2022/11/27 05:49:44;;;;;;;;;;;;;;;;;;4917099;29;20178;-89
2022/11/27 05:52:10;;;;;;;;;;;;;;;;;;4917076;29;20029;-89
2022/11/27 05:54:36;;;;;;;;;;;;;;;;;;4917144;29;19923;-89
2022/11/27 05:57:02;;;;;;;;;;;;;;;;;;4916914;29;19927;-89
2022/11/27 05:59:28;;;;;;;;;;;;;;;;;;4917260;29;20300;-89
2022/11/27 06:01:54;;;;;;;;;;;;;;;;;;4917017;29;19927;-89
2022/11/27 06:04:20;;;;;;;;;;;;;;;;;;4916908;29;19923;-89
2022/11/27 06:06:45;;;;;;;;;;;;;;;;;;4916859;29;19923;-89
2022/11/27 06:09:12;;;;;;;;;;;;;;;;;;4916816;29;20328;-89
2022/11/27 06:11:38;;;;;;;;;;;;;;;;;;4917117;29;20290;-89
2022/11/27 06:14:03;;;;;;;;;;;;;;;;;;4916952;29;19923;-89
2022/11/27 06:16:29;;;;;;;;;;;;;;;;;;4916719;29;19929;-90
2022/11/27 06:18:55;;;;;;;;;;;;;;;;;;4916756;29;20244;-89
2022/11/27 06:21:21;;;;;;;;;;;;;;;;;;4916439;29;19927;-89
2022/11/27 06:23:47;;;;;;;;;;;;;;;;;;4916526;29;19958;-89
2022/11/27 06:26:13;;;;;;;;;;;;;;;;;;4916438;29;19927;-89
2022/11/27 06:28:39;;;;;;;;;;;;;;;;;;4916433;29;19931;-89
2022/11/27 06:31:05;;;;;;;;;;;;;;;;;;4900743;29;19927;-89
2022/11/27 06:33:31;;;;;;;;;;;;;;;;;;4916469;29;20206;-89
2022/11/27 06:35:57;;;;;;;;;;;;;;;;;;4916834;29;19934;-89
2022/11/27 06:38:23;;;;;;;;;;;;;;;;;;4916540;29;19923;-89
2022/11/27 06:40:49;;;;;;;;;;;;;;;;;;4916196;29;19938;-89
2022/11/27 06:43:15;;;;;;;;;;;;;;;;;;4915968;29;20283;-89
2022/11/27 06:45:41;;;;;;;;;;;;;;;;;;4916162;29;19923;-89
2022/11/27 06:48:07;;;;;;;;;;;;;;;;;;4916028;29;19926;-90
2022/11/27 06:50:32;;;;;;;;;;;;;;;;;;4916011;29;19923;-89
2022/11/27 06:52:58;;;;;;;;;;;;;;;;;;4916200;29;20271;-89
2022/11/27 06:55:24;;;;;;;;;;;;;;;;;;4916040;29;19929;-89
2022/11/27 06:57:50;;;;;;;;;;;;;;;;;;4916200;29;19929;-89
2022/11/27 07:00:16;;;;;;;;;;;;;;;;;;4916002;29;19954;-89
2022/11/27 07:02:42;;;;;;;;;;;;;;;;;;4915900;29;19989;-89
2022/11/27 07:05:08;;;;;;;;;;;;;;;;;;4915972;29;19923;-89
2022/11/27 07:07:34;;;;;;;;;;;;;;;;;;4915816;29;20036;-89
2022/11/27 07:10:00;;;;;;;;;;;;;;;;;;4916170;29;20002;-88
2022/11/27 07:12:26;;;;;;;;;;;;;;;;;;4916077;29;19923;-89
2022/11/27 07:14:51;;;;;;;;;;;;;;;;;;4915729;29;19942;-89
2022/11/27 07:17:17;;;;;;;;;;;;;;;;;;4915955;29;20385;-89
2022/11/27 07:19:43;;;;;;;;;;;;;;;;;;4915760;29;19923;-89
2022/11/27 07:22:09;;;;;;;;;;;;;;;;;;4915301;29;19933;-89
2022/11/27 07:24:44;;;;;;;;;;;;;;;;;;4915463;29;19931;-88
2022/11/27 07:27:10;;;;;;;;;;;;;;;;;;4915805;29;19923;-90
2022/11/27 07:29:39;;;;;;;;;;;;;;;;;;4915467;29;19934;-89
2022/11/27 07:32:08;;;;;;;;;;;;;;;;;;4915614;29;19928;-88
2022/11/27 07:34:34;;;;;;;;;;;;;;;;;;4915541;29;19970;-89
2022/11/27 07:37:00;;;;;;;;;;;;;;;;;;4915556;29;20264;-88
2022/11/27 07:39:26;;;;;;;;;;;;;;;;;;4915582;29;19983;-90
2022/11/27 07:41:52;;;;;;;;;;;;;;;;;;4915147;29;19974;-89
2022/11/27 07:44:18;;;;;;;;;;;;;;;;;;4914981;29;19974;-88
2022/11/27 07:46:43;;;;;;;;;;;;;;;;;;4915500;29;19943;-89
2022/11/27 07:49:09;;;;;;;;;;;;;;;;;;4915391;29;19930;-93
2022/11/27 07:51:35;;;;;;;;;;;;;;;;;;4915207;29;19923;-88
2022/11/27 07:54:01;;;;;;;;;;;;;;;;;;4915006;29;20087;-89
2022/11/27 07:56:27;;;;;;;;;;;;;;;;;;4914912;29;20379;-90
2022/11/27 07:58:53;;;;;;;;;;;;;;;;;;4915029;29;20025;-90
2022/11/27 08:01:20;;;;;;;;;;;;;;;;;;4915109;29;19927;-89
2022/11/27 08:03:46;;;;;;;;;;;;;;;;;;4915032;29;19923;-90
2022/11/27 08:06:12;;;;;;;;;;;;;;;;;;4914879;29;19979;-90
2022/11/27 08:08:38;;;;;;;;;;;;;;;;;;4914898;29;19970;-93
2022/11/27 08:11:04;;;;;;;;;;;;;;;;;;4915253;29;19930;-89
2022/11/27 08:13:30;;;;;;;;;;;;;;;;;;4914727;29;19923;-90
2022/11/27 08:15:56;;;;;;;;;;;;;;;;;;4915031;29;19931;-90
2022/11/27 08:18:22;;;;;;;;;;;;;;;;;;4914766;29;19923;-89
2022/11/27 08:20:48;;;;;;;;;;;;;;;;;;4914530;29;19938;-90
2022/11/27 08:23:13;;;;;;;;;;;;;;;;;;4915004;29;19923;-90
2022/11/27 08:25:39;;;;;;;;;;;;;;;;;;4914538;29;19923;-87
2022/11/27 08:28:05;;;;;;;;;;;;;;;;;;4914774;29;20224;-88
2022/11/27 08:30:31;;;;;;;;;;;;;;;;;;4914510;29;19927;-88
2022/11/27 08:32:57;;;;;;;;;;;;;;;;;;4908540;29;19934;-88
2022/11/27 08:35:23;;;;;;;;;;;;;;;;;;4880266;29;19927;-89
2022/11/27 08:37:49;;;;;;;;;;;;;;;;;;4896315;29;19923;-89
2022/11/27 08:40:15;;;;;;;;;;;;;;;;;;4879895;29;19924;-88
2022/11/27 08:42:41;;;;;;;;;;;;;;;;;;4895478;29;19966;-89
2022/11/27 08:45:07;;;;;;;;;;;;;;;;;;4879769;29;19981;-90
2022/11/27 08:47:33;;;;;;;;;;;;;;;;;;4895924;29;19925;-90
2022/11/27 08:49:59;;;;;;;;;;;;;;;;;;4895761;29;20010;-89
2022/11/27 08:52:25;;;;;;;;;;;;;;;;;;4879863;29;20335;-90
2022/11/27 08:54:51;;;;;;;;;;;;;;;;;;4880081;29;19923;-89
2022/11/27 08:57:17;;;;;;;;;;;;;;;;;;4895975;29;19928;-90
2022/11/27 08:59:43;;;;;;;;;;;;;;;;;;4880385;29;19923;-90
2022/11/27 09:02:08;;;;;;;;;;;;;;;;;;4879850;29;19942;-90
2022/11/27 09:04:34;;;;;;;;;;;;;;;;;;4880020;29;19928;-91
2022/11/27 09:07:00;;;;;;;;;;;;;;;;;;4898202;29;20118;-90
2022/11/27 09:09:26;;;;;;;;;;;;;;;;;;4885956;29;19924;-90
2022/11/27 09:11:52;;;;;;;;;;;;;;;;;;4886301;29;19930;-90
2022/11/27 09:14:18;;;;;;;;;;;;;;;;;;4899188;29;19959;-91
2022/11/27 09:16:44;;;;;;;;;;;;;;;;;;4884075;29;19960;-92
2022/11/27 09:19:10;;;;;;;;;;;;;;;;;;4884132;29;19931;-89
2022/11/27 09:21:37;;;;;;;;;;;;;;;;;;4899359;29;19927;-89
2022/11/27 09:24:03;;;;;;;;;;;;;;;;;;4883416;29;19924;-90
2022/11/27 09:26:29;;;;;;;;;;;;;;;;;;4899049;29;19930;-90
2022/11/27 09:28:55;;;;;;;;;;;;;;;;;;4898716;29;19990;-90
2022/11/27 09:31:21;;;;;;;;;;;;;;;;;;4882736;29;19989;-91
2022/11/27 09:33:47;;;;;;;;;;;;;;;;;;4889760;29;20413;-90
2022/11/27 09:36:13;;;;;;;;;;;;;;;;;;4917525;29;19966;-90
2022/11/27 09:38:39;;;;;;;;;;;;;;;;;;4901677;29;20058;-90
2022/11/27 09:41:06;;;;;;;;;;;;;;;;;;4902055;29;19934;-90
2022/11/27 09:43:32;;;;;;;;;;;;;;;;;;4901531;29;19978;-91
2022/11/27 09:46:00;;;;;;;;;;;;;;;;;;4917876;29;19986;-91
2022/11/27 09:48:25;;;;;;;;;;;;;;;;;;4913609;29;19927;-93
2022/11/27 09:50:54;;;;;;;;;;;;;;;;;;4914080;29;19927;-91
2022/11/27 09:53:39;;;;;;;;;;;;;;;;;;4936683;29;19933;-92
2022/11/27 09:56:05;;;;;;;;;;;;;;;;;;4923997;29;19927;-91
2022/11/27 09:58:31;;;;;;;;;;;;;;;;;;4918982;29;19923;-90
2022/11/27 10:00:57;;;;;;;;;;;;;;;;;;4917118;29;19935;-89
2022/11/27 10:03:23;;;;;;;;;;;;;;;;;;4917123;29;20366;-90
2022/11/27 10:05:49;;;;;;;;;;;;;;;;;;4901020;29;19954;-90
2022/11/27 10:08:15;;;;;;;;;;;;;;;;;;4916774;29;20366;-90
2022/11/27 10:10:43;;;;;;;;;;;;;;;;;;4901373;29;20278;-90
2022/11/27 10:13:09;;;;;;;;;;;;;;;;;;4901257;29;19923;-90
2022/11/27 10:15:35;;;;;;;;;;;;;;;;;;4901044;29;19955;-90
2022/11/27 10:18:01;;;;;;;;;;;;;;;;;;4916340;29;19934;-94
2022/11/27 10:20:31;;;;;;;;;;;;;;;;;;4901813;29;20242;-91
2022/11/27 10:22:57;;;;;;;;;;;;;;;;;;4900939;29;20025;-91
2022/11/27 10:25:23;;;;;;;;;;;;;;;;;;4900667;29;20369;-91
2022/11/27 10:27:49;;;;;;;;;;;;;;;;;;4916156;29;19979;-91
2022/11/27 10:30:15;;;;;;;;;;;;;;;;;;4900572;29;20301;-91
2022/11/27 10:32:41;;;;;;;;;;;;;;;;;;4900782;29;20037;-90
2022/11/27 10:35:07;;;;;;;;;;;;;;;;;;4916313;29;20433;-90
2022/11/27 10:37:32;;;;;;;;;;;;;;;;;;4900618;29;19923;-89
2022/11/27 10:39:58;;;;;;;;;;;;;;;;;;4900519;29;19923;-91
2022/11/27 10:42:24;;;;;;;;;;;;;;;;;;4915819;29;19934;-90
2022/11/27 10:44:50;;;;;;;;;;;;;;;;;;4900477;29;19923;-91
2022/11/27 10:47:16;;;;;;;;;;;;;;;;;;4900759;29;20066;-90
2022/11/27 10:49:42;;;;;;;;;;;;;;;;;;4900716;29;20006;-91
2022/11/27 10:52:08;;;;;;;;;;;;;;;;;;4900809;29;19930;-90
2022/11/27 10:54:34;;;;;;;;;;;;;;;;;;4900493;29;20037;-90
2022/11/27 10:57:00;;;;;;;;;;;;;;;;;;4915869;29;20018;-90
2022/11/27 10:59:26;;;;;;;;;;;;;;;;;;4900257;29;19923;-90
2022/11/27 11:01:52;;;;;;;;;;;;;;;;;;4899993;29;20326;-90
2022/11/27 11:04:18;;;;;;;;;;;;;;;;;;4900046;29;19930;-90
2022/11/27 11:06:44;;;;;;;;;;;;;;;;;;4899980;29;20013;-90
2022/11/27 11:09:10;;;;;;;;;;;;;;;;;;4915598;29;19923;-90
2022/11/27 11:11:36;;;;;;;;;;;;;;;;;;4899869;29;20016;-89
2022/11/27 11:14:02;;;;;;;;;;;;;;;;;;4900533;29;19923;-91
2022/11/27 11:16:30;;;;;;;;;;;;;;;;;;4915930;29;20374;-91
2022/11/27 11:18:56;;;;;;;;;;;;;;;;;;4901285;29;20401;-90
2022/11/27 11:21:22;;;;;;;;;;;;;;;;;;4899771;29;20018;-86
2022/11/27 11:23:48;;;;;;;;;;;;;;;;;;4899798;29;19969;-86
2022/11/27 11:26:14;;;;;;;;;;;;;;;;;;4915590;29;20014;-87
2022/11/27 11:28:40;;;;;;;;;;;;;;;;;;4899670;29;20008;-89
2022/11/27 11:31:06;;;;;;;;;;;;;;;;;;4899933;29;20029;-88
2022/11/27 11:33:32;;;;;;;;;;;;;;;;;;4915796;29;19923;-88
2022/11/27 11:35:58;;;;;;;;;;;;;;;;;;4915363;29;19923;-88
2022/11/27 11:38:24;;;;;;;;;;;;;;;;;;4915801;29;19923;-88
2022/11/27 11:40:50;;;;;;;;;;;;;;;;;;4899451;29;20425;-87
2022/11/27 11:43:16;;;;;;;;;;;;;;;;;;4915081;29;19931;-87
2022/11/27 11:45:42;;;;;;;;;;;;;;;;;;4915491;29;19930;-87
2022/11/27 11:48:08;;;;;;;;;;;;;;;;;;4916674;29;19970;-88
2022/11/27 11:50:34;;;;;;;;;;;;;;;;;;4900357;29;20382;-88
2022/11/27 11:53:00;;;;;;;;;;;;;;;;;;4900155;29;19927;-88
2022/11/27 11:55:26;;;;;;;;;;;;;;;;;;4915778;29;19970;-88
2022/11/27 11:57:52;;;;;;;;;;;;;;;;;;4915960;29;19923;-88
2022/11/27 12:00:18;;;;;;;;;;;;;;;;;;4916487;29;19939;-89
2022/11/27 12:02:44;;;;;;;;;;;;;;;;;;4918342;29;19974;-89
2022/11/27 12:05:10;;;;;;;;;;;;;;;;;;4902654;29;20005;-89
2022/11/27 12:07:36;;;;;;;;;;;;;;;;;;4917448;29;19923;-88
2022/11/27 12:10:02;;;;;;;;;;;;;;;;;;4900124;29;19930;-88
2022/11/27 12:12:28;;;;;;;;;;;;;;;;;;4916799;29;19923;-86
2022/11/27 12:14:54;;;;;;;;;;;;;;;;;;4900674;29;19978;-88
2022/11/27 12:17:20;;;;;;;;;;;;;;;;;;4917474;29;19923;-89
2022/11/27 12:19:45;;;;;;;;;;;;;;;;;;4917722;29;19923;-89
2022/11/27 12:22:11;;;;;;;;;;;;;;;;;;4901080;29;19966;-88
2022/11/27 12:24:37;;;;;;;;;;;;;;;;;;4899678;29;19930;-88
2022/11/27 12:27:03;;;;;;;;;;;;;;;;;;4899214;29;19970;-87
2022/11/27 12:29:29;;;;;;;;;;;;;;;;;;4914809;29;20341;-87
2022/11/27 12:31:55;;;;;;;;;;;;;;;;;;4898917;29;19923;-87
2022/11/27 12:34:22;;;;;;;;;;;;;;;;;;4899249;29;19930;-91
2022/11/27 12:36:48;;;;;;;;;;;;;;;;;;4899934;29;20208;-90
2022/11/27 12:39:14;;;;;;;;;;;;;;;;;;4918491;29;19926;-87
2022/11/27 12:41:40;;;;;;;;;;;;;;;;;;4914423;29;19933;-88
2022/11/27 12:44:06;;;;;;;;;;;;;;;;;;4905958;29;19950;-88
2022/11/27 12:46:32;;;;;;;;;;;;;;;;;;4883802;29;19924;-88
2022/11/27 12:48:58;;;;;;;;;;;;;;;;;;4887496;29;19930;-88
2022/11/27 12:51:24;;;;;;;;;;;;;;;;;;4899642;29;19930;-88
2022/11/27 12:53:49;;;;;;;;;;;;;;;;;;4899306;29;19930;-88
2022/11/27 12:56:16;;;;;;;;;;;;;;;;;;4899746;29;20025;-90
2022/11/27 12:58:42;;;;;;;;;;;;;;;;;;4899156;29;20380;-91
2022/11/27 13:01:07;;;;;;;;;;;;;;;;;;4883628;29;19935;-87
2022/11/27 13:03:33;;;;;;;;;;;;;;;;;;4899522;29;19931;-88
2022/11/27 13:05:59;;;;;;;;;;;;;;;;;;4899450;29;20220;-88
2022/11/27 13:08:25;;;;;;;;;;;;;;;;;;4899235;29;19924;-89
2022/11/27 13:10:51;;;;;;;;;;;;;;;;;;4898976;29;19930;-87
2022/11/27 13:13:17;;;;;;;;;;;;;;;;;;4883635;29;19927;-87
2022/11/27 13:15:43;;;;;;;;;;;;;;;;;;4883475;29;20116;-87
2022/11/27 13:18:09;;;;;;;;;;;;;;;;;;4898855;29;19923;-86
2022/11/27 13:20:35;;;;;;;;;;;;;;;;;;4898485;29;19927;-88
2022/11/27 13:23:01;;;;;;;;;;;;;;;;;;4898865;29;20031;-88
2022/11/27 13:25:27;;;;;;;;;;;;;;;;;;4882984;29;20059;-89
2022/11/27 13:27:52;;;;;;;;;;;;;;;;;;4883134;29;19966;-89
2022/11/27 13:30:18;;;;;;;;;;;;;;;;;;4898726;29;19924;-89
2022/11/27 13:32:44;;;;;;;;;;;;;;;;;;4883062;29;19927;-90
2022/11/27 13:35:10;;;;;;;;;;;;;;;;;;4883159;29;19930;-92
2022/11/27 13:37:36;;;;;;;;;;;;;;;;;;4898770;29;19934;-92
2022/11/27 13:40:02;;;;;;;;;;;;;;;;;;4883192;29;19923;-90
2022/11/27 13:42:28;;;;;;;;;;;;;;;;;;4882511;29;20018;-90
2022/11/27 13:44:54;;;;;;;;;;;;;;;;;;4882989;29;20082;-91
2022/11/27 13:47:20;;;;;;;;;;;;;;;;;;4898446;29;19923;-91
2022/11/27 13:49:46;;;;;;;;;;;;;;;;;;4882966;29;20272;-89
2022/11/27 13:52:12;;;;;;;;;;;;;;;;;;4882192;29;20009;-88
2022/11/27 13:54:38;;;;;;;;;;;;;;;;;;4898404;29;20355;-90
2022/11/27 13:57:04;;;;;;;;;;;;;;;;;;4898238;29;20299;-90
2022/11/27 13:59:30;;;;;;;;;;;;;;;;;;4882813;29;19987;-91
2022/11/27 14:01:57;;;;;;;;;;;;;;;;;;4898512;29;20354;-90
2022/11/27 14:04:23;;;;;;;;;;;;;;;;;;4883300;29;19930;-89
2022/11/27 14:06:49;;;;;;;;;;;;;;;;;;4898538;29;20313;-89
2022/11/27 14:09:15;;;;;;;;;;;;;;;;;;4883044;29;19930;-89
2022/11/27 14:11:41;;;;;;;;;;;;;;;;;;4898833;29;19948;-89
2022/11/27 14:14:07;;;;;;;;;;;;;;;;;;4887227;29;19935;-90
2022/11/27 14:16:33;;;;;;;;;;;;;;;;;;4888588;29;19939;-90
2022/11/27 14:18:59;;;;;;;;;;;;;;;;;;4910882;29;19928;-91
2022/11/27 14:21:25;;;;;;;;;;;;;;;;;;4906216;29;19936;-90
2022/11/27 14:23:51;;;;;;;;;;;;;;;;;;4914173;29;19928;-89
2022/11/27 14:26:17;;;;;;;;;;;;;;;;;;4894770;29;20389;-89
2022/11/27 14:28:43;;;;;;;;;;;;;;;;;;4898324;29;19970;-89
2022/11/27 14:31:09;;;;;;;;;;;;;;;;;;4910046;29;20014;-92
2022/11/27 14:33:35;;;;;;;;;;;;;;;;;;4916275;29;20089;-90
2022/11/27 14:36:01;;;;;;;;;;;;;;;;;;4901064;29;19979;-88
2022/11/27 14:38:27;;;;;;;;;;;;;;;;;;4901074;29;19934;-88
2022/11/27 14:40:53;;;;;;;;;;;;;;;;;;4900451;29;19978;-89
2022/11/27 14:43:18;;;;;;;;;;;;;;;;;;4916222;29;20018;-88
2022/11/27 14:45:44;;;;;;;;;;;;;;;;;;4917331;29;19922;-88
2022/11/27 14:48:11;;;;;;;;;;;;;;;;;;4900274;29;20258;-88
2022/11/27 14:50:38;;;;;;;;;;;;;;;;;;4916032;29;19930;-89
2022/11/27 14:53:04;;;;;;;;;;;;;;;;;;4916090;29;19974;-89
2022/11/27 14:55:30;;;;;;;;;;;;;;;;;;4916282;29;19927;-88
2022/11/27 14:57:59;;;;;;;;;;;;;;;;;;4900529;29;19923;-89
2022/11/27 15:00:30;;;;;;;;;;;;;;;;;;4915962;29;20354;-89
2022/11/27 15:02:56;;;;;;;;;;;;;;;;;;4915832;29;20021;-89
2022/11/27 15:05:22;;;;;;;;;;;;;;;;;;4916420;29;19966;-88
2022/11/27 15:07:48;;;;;;;;;;;;;;;;;;4900138;29;19923;-88
2022/11/27 15:10:14;;;;;;;;;;;;;;;;;;4900253;29;19994;-88
2022/11/27 15:12:40;;;;;;;;;;;;;;;;;;4915871;29;20378;-89
2022/11/27 15:15:05;;;;;;;;;;;;;;;;;;4915600;29;19923;-88
2022/11/27 15:17:31;;;;;;;;;;;;;;;;;;4915541;29;19946;-88
2022/11/27 15:19:58;;;;;;;;;;;;;;;;;;4915490;29;19962;-88
2022/11/27 15:22:23;;;;;;;;;;;;;;;;;;4899596;29;20318;-88
2022/11/27 15:24:49;;;;;;;;;;;;;;;;;;4890275;29;19979;-88
2022/11/27 15:27:15;;;;;;;;;;;;;;;;;;4915603;29;19923;-88
2022/11/27 15:29:41;;;;;;;;;;;;;;;;;;4915285;29;20022;-88
2022/11/27 15:32:07;;;;;;;;;;;;;;;;;;4915551;29;19970;-88
2022/11/27 15:34:33;;;;;;;;;;;;;;;;;;4915635;29;19929;-88
2022/11/27 15:37:02;;;;;;;;;;;;;;;;;;4915263;29;20013;-88
2022/11/27 15:39:28;;;;;;;;;;;;;;;;;;4899227;29;19930;-87
2022/11/27 15:41:54;;;;;;;;;;;;;;;;;;4915033;29;19927;-88
2022/11/27 15:44:20;;;;;;;;;;;;;;;;;;4914927;29;19934;-87
2022/11/27 15:46:46;;;;;;;;;;;;;;;;;;4915394;29;19927;-87
2022/11/27 15:49:12;;;;;;;;;;;;;;;;;;4915255;29;19923;-87
2022/11/27 15:51:38;;;;;;;;;;;;;;;;;;4914890;29;19927;-87
2022/11/27 15:54:04;;;;;;;;;;;;;;;;;;4915275;29;19930;-87
2022/11/27 15:56:30;;;;;;;;;;;;;;;;;;4915006;29;19927;-88
2022/11/27 15:58:55;;;;;;;;;;;;;;;;;;4914515;29;19924;-88
2022/11/27 16:01:21;;;;;;;;;;;;;;;;;;4915239;29;20290;-88
2022/11/27 16:03:47;;;;;;;;;;;;;;;;;;4915042;29;20018;-89
2022/11/27 16:06:13;;;;;;;;;;;;;;;;;;4899070;29;19929;-88
2022/11/27 16:08:39;;;;;;;;;;;;;;;;;;4914797;29;20251;-89
2022/11/27 16:11:05;;;;;;;;;;;;;;;;;;4899280;29;19927;-89
2022/11/27 16:13:31;;;;;;;;;;;;;;;;;;4898878;29;19927;-89
2022/11/27 16:15:57;;;;;;;;;;;;;;;;;;4898583;29;19969;-90
2022/11/27 16:18:23;;;;;;;;;;;;;;;;;;4899343;29;19923;-89
2022/11/27 16:20:49;;;;;;;;;;;;;;;;;;4915101;29;19927;-89
2022/11/27 16:23:15;;;;;;;;;;;;;;;;;;4899344;29;19943;-88
2022/11/27 16:25:40;;;;;;;;;;;;;;;;;;4899366;29;19923;-89
2022/11/27 16:28:06;;;;;;;;;;;;;;;;;;4915747;29;19926;-88
2022/11/27 16:30:32;;;;;;;;;;;;;;;;;;4915415;29;20014;-89
2022/11/27 16:32:58;;;;;;;;;;;;;;;;;;4899267;29;19923;-89
2022/11/27 16:35:24;;;;;;;;;;;;;;;;;;4914928;29;19931;-88
2022/11/27 16:37:50;;;;;;;;;;;;;;;;;;4900119;29;19923;-89